sensor_id;sensor_type;location;lat;lon;timestamp;temperature;humidity
3416;DHT22;1721;51.238;9.562;2023-04-01T00:01:37;10.30;99.90
3416;DHT22;1721;51.238;9.562;2023-04-01T00:04:03;10.30;99.90
3416;DHT22;1721;51.238;9.562;2023-04-01T00:06:29;10.30;99.90
3416;DHT22;1721;51.238;9.562;2023-04-01T00:08:55;10.40;99.90
3416;DHT22;1721;51.238;9.562;2023-04-01T00:11:20;10.50;99.90
3416;DHT22;1721;51.238;9.562;2023-04-01T00:13:46;10.50;99.90
3416;DHT22;1721;51.238;9.562;2023-04-01T00:16:12;10.50;99.90
3416;DHT22;1721;51.238;9.562;2023-04-01T00:18:38;10.40;99.90
3416;DHT22;1721;51.238;9.562;2023-04-01T00:21:04;10.30;99.90
3416;DHT22;1721;51.238;9.562;2023-04-01T00:23:30;10.40;99.90
3416;DHT22;1721;51.238;9.562;2023-04-01T00:25:56;10.40;99.90
3416;DHT22;1721;51.238;9.562;2023-04-01T00:28:24;10.50;99.90
3416;DHT22;1721;51.238;9.562;2023-04-01T00:30:49;10.50;99.90
3416;DHT22;1721;51.238;9.562;2023-04-01T00:33:15;10.50;99.90
3416;DHT22;1721;51.238;9.562;2023-04-01T00:35:41;10.50;99.90
3416;DHT22;1721;51.238;9.562;2023-04-01T00:38:07;10.50;99.90
3416;DHT22;1721;51.238;9.562;2023-04-01T00:40:38;10.60;99.90
3416;DHT22;1721;51.238;9.562;2023-04-01T00:43:15;10.60;99.90
3416;DHT22;1721;51.238;9.562;2023-04-01T00:45:42;10.60;99.90
3416;DHT22;1721;51.238;9.562;2023-04-01T00:48:21;10.60;99.90
3416;DHT22;1721;51.238;9.562;2023-04-01T00:50:51;10.50;99.90
3416;DHT22;1721;51.238;9.562;2023-04-01T00:53:19;10.30;99.90
3416;DHT22;1721;51.238;9.562;2023-04-01T00:56:00;10.30;99.90
3416;DHT22;1721;51.238;9.562;2023-04-01T00:58:27;10.40;99.90
3416;DHT22;1721;51.238;9.562;2023-04-01T01:00:55;10.40;99.90
3416;DHT22;1721;51.238;9.562;2023-04-01T01:03:22;10.50;99.90
3416;DHT22;1721;51.238;9.562;2023-04-01T01:06:07;10.40;99.90
3416;DHT22;1721;51.238;9.562;2023-04-01T01:11:25;10.30;99.90
3416;DHT22;1721;51.238;9.562;2023-04-01T01:16:46;10.20;99.90
3416;DHT22;1721;51.238;9.562;2023-04-01T01:22:45;10.00;99.90
3416;DHT22;1721;51.238;9.562;2023-04-01T01:27:54;10.00;99.90
3416;DHT22;1721;51.238;9.562;2023-04-01T01:30:51;9.90;99.90
3416;DHT22;1721;51.238;9.562;2023-04-01T01:33:45;10.10;99.90
3416;DHT22;1721;51.238;9.562;2023-04-01T01:36:14;10.20;99.90
3416;DHT22;1721;51.238;9.562;2023-04-01T01:38:41;10.20;99.90
3416;DHT22;1721;51.238;9.562;2023-04-01T01:41:08;10.10;99.90
3416;DHT22;1721;51.238;9.562;2023-04-01T01:43:40;10.00;99.90
3416;DHT22;1721;51.238;9.562;2023-04-01T01:46:13;10.20;99.90
3416;DHT22;1721;51.238;9.562;2023-04-01T01:48:41;10.20;99.90
3416;DHT22;1721;51.238;9.562;2023-04-01T01:51:08;10.10;99.90
3416;DHT22;1721;51.238;9.562;2023-04-01T01:53:34;10.20;99.90
3416;DHT22;1721;51.238;9.562;2023-04-01T01:56:00;10.10;99.90
3416;DHT22;1721;51.238;9.562;2023-04-01T01:58:32;10.00;99.90
3416;DHT22;1721;51.238;9.562;2023-04-01T02:01:04;10.10;99.90
3416;DHT22;1721;51.238;9.562;2023-04-01T02:03:34;10.20;99.90
3416;DHT22;1721;51.238;9.562;2023-04-01T02:06:04;10.10;99.90
3416;DHT22;1721;51.238;9.562;2023-04-01T02:08:43;10.00;99.90
3416;DHT22;1721;51.238;9.562;2023-04-01T02:11:11;10.10;99.90
3416;DHT22;1721;51.238;9.562;2023-04-01T02:14:01;10.00;99.90
3416;DHT22;1721;51.238;9.562;2023-04-01T02:16:33;10.00;99.90
3416;DHT22;1721;51.238;9.562;2023-04-01T02:19:01;10.10;99.90
3416;DHT22;1721;51.238;9.562;2023-04-01T02:21:30;10.00;99.90
3416;DHT22;1721;51.238;9.562;2023-04-01T02:23:58;10.00;99.90
3416;DHT22;1721;51.238;9.562;2023-04-01T02:26:26;10.10;99.90
3416;DHT22;1721;51.238;9.562;2023-04-01T02:28:54;10.20;99.90
3416;DHT22;1721;51.238;9.562;2023-04-01T02:31:21;10.10;99.90
3416;DHT22;1721;51.238;9.562;2023-04-01T02:33:48;10.10;99.90
3416;DHT22;1721;51.238;9.562;2023-04-01T02:36:15;10.10;99.90
3416;DHT22;1721;51.238;9.562;2023-04-01T02:38:48;10.10;99.90
3416;DHT22;1721;51.238;9.562;2023-04-01T02:41:15;9.90;99.90
3416;DHT22;1721;51.238;9.562;2023-04-01T02:43:40;10.00;99.90
3416;DHT22;1721;51.238;9.562;2023-04-01T02:46:06;10.20;99.90
3416;DHT22;1721;51.238;9.562;2023-04-01T02:48:31;10.20;99.90
3416;DHT22;1721;51.238;9.562;2023-04-01T02:50:57;10.20;99.90
3416;DHT22;1721;51.238;9.562;2023-04-01T02:53:23;10.20;99.90
3416;DHT22;1721;51.238;9.562;2023-04-01T02:55:48;10.10;99.90
3416;DHT22;1721;51.238;9.562;2023-04-01T02:58:17;10.10;99.90
3416;DHT22;1721;51.238;9.562;2023-04-01T03:00:43;10.00;99.90
3416;DHT22;1721;51.238;9.562;2023-04-01T03:03:09;10.00;99.90
3416;DHT22;1721;51.238;9.562;2023-04-01T03:05:34;10.00;99.90
3416;DHT22;1721;51.238;9.562;2023-04-01T03:08:00;10.20;99.90
3416;DHT22;1721;51.238;9.562;2023-04-01T03:10:26;10.10;99.90
3416;DHT22;1721;51.238;9.562;2023-04-01T03:12:54;10.10;99.90
3416;DHT22;1721;51.238;9.562;2023-04-01T03:15:20;10.10;99.90
3416;DHT22;1721;51.238;9.562;2023-04-01T03:17:45;10.20;99.90
3416;DHT22;1721;51.238;9.562;2023-04-01T03:20:12;10.20;99.90
3416;DHT22;1721;51.238;9.562;2023-04-01T03:22:38;10.10;99.90
3416;DHT22;1721;51.238;9.562;2023-04-01T03:25:05;10.10;99.90
3416;DHT22;1721;51.238;9.562;2023-04-01T03:27:31;9.90;99.90
3416;DHT22;1721;51.238;9.562;2023-04-01T03:29:56;9.90;99.90
3416;DHT22;1721;51.238;9.562;2023-04-01T03:32:22;9.90;99.90
3416;DHT22;1721;51.238;9.562;2023-04-01T03:34:47;9.90;99.90
3416;DHT22;1721;51.238;9.562;2023-04-01T03:37:13;10.10;99.90
3416;DHT22;1721;51.238;9.562;2023-04-01T03:39:39;10.10;99.90
3416;DHT22;1721;51.238;9.562;2023-04-01T03:42:05;10.10;99.90
3416;DHT22;1721;51.238;9.562;2023-04-01T03:44:32;10.30;99.90
3416;DHT22;1721;51.238;9.562;2023-04-01T03:46:58;10.20;99.90
3416;DHT22;1721;51.238;9.562;2023-04-01T03:49:23;10.10;99.90
3416;DHT22;1721;51.238;9.562;2023-04-01T03:51:49;10.10;99.90
3416;DHT22;1721;51.238;9.562;2023-04-01T03:54:15;10.10;99.90
3416;DHT22;1721;51.238;9.562;2023-04-01T03:56:40;10.10;99.90
3416;DHT22;1721;51.238;9.562;2023-04-01T03:59:07;10.00;99.90
3416;DHT22;1721;51.238;9.562;2023-04-01T04:01:33;9.90;99.90
3416;DHT22;1721;51.238;9.562;2023-04-01T04:03:58;10.00;99.90
3416;DHT22;1721;51.238;9.562;2023-04-01T04:06:25;10.00;99.90
3416;DHT22;1721;51.238;9.562;2023-04-01T04:08:52;10.00;99.90
3416;DHT22;1721;51.238;9.562;2023-04-01T04:11:19;10.00;99.90
3416;DHT22;1721;51.238;9.562;2023-04-01T04:13:44;9.90;99.90
3416;DHT22;1721;51.238;9.562;2023-04-01T04:16:11;9.90;99.90
3416;DHT22;1721;51.238;9.562;2023-04-01T04:18:37;9.90;99.90
3416;DHT22;1721;51.238;9.562;2023-04-01T04:21:03;9.90;99.90
3416;DHT22;1721;51.238;9.562;2023-04-01T04:23:29;9.80;99.90
3416;DHT22;1721;51.238;9.562;2023-04-01T04:25:59;9.80;99.90
3416;DHT22;1721;51.238;9.562;2023-04-01T04:28:26;9.70;99.90
3416;DHT22;1721;51.238;9.562;2023-04-01T04:30:52;9.60;99.90
3416;DHT22;1721;51.238;9.562;2023-04-01T04:33:18;9.60;99.90
3416;DHT22;1721;51.238;9.562;2023-04-01T04:35:44;9.70;99.90
3416;DHT22;1721;51.238;9.562;2023-04-01T04:38:10;9.80;99.90
3416;DHT22;1721;51.238;9.562;2023-04-01T04:40:36;9.90;99.90
3416;DHT22;1721;51.238;9.562;2023-04-01T04:43:03;9.90;99.90
3416;DHT22;1721;51.238;9.562;2023-04-01T04:45:28;9.80;99.90
3416;DHT22;1721;51.238;9.562;2023-04-01T04:47:54;9.80;99.90
3416;DHT22;1721;51.238;9.562;2023-04-01T04:50:20;9.90;99.90
3416;DHT22;1721;51.238;9.562;2023-04-01T04:52:45;10.00;99.90
3416;DHT22;1721;51.238;9.562;2023-04-01T04:55:11;10.00;99.90
3416;DHT22;1721;51.238;9.562;2023-04-01T04:57:36;9.90;99.90
3416;DHT22;1721;51.238;9.562;2023-04-01T05:00:02;9.80;99.90
3416;DHT22;1721;51.238;9.562;2023-04-01T05:02:28;9.80;99.90
3416;DHT22;1721;51.238;9.562;2023-04-01T05:04:54;9.80;99.90
3416;DHT22;1721;51.238;9.562;2023-04-01T05:07:19;9.80;99.90
3416;DHT22;1721;51.238;9.562;2023-04-01T05:09:45;9.90;99.90
3416;DHT22;1721;51.238;9.562;2023-04-01T05:12:12;9.90;99.90
3416;DHT22;1721;51.238;9.562;2023-04-01T05:14:38;9.80;99.90
3416;DHT22;1721;51.238;9.562;2023-04-01T05:17:04;9.80;99.90
3416;DHT22;1721;51.238;9.562;2023-04-01T05:19:29;9.90;99.90
3416;DHT22;1721;51.238;9.562;2023-04-01T05:21:55;9.90;99.90
3416;DHT22;1721;51.238;9.562;2023-04-01T05:24:20;9.90;99.90
3416;DHT22;1721;51.238;9.562;2023-04-01T05:26:46;9.90;99.90
3416;DHT22;1721;51.238;9.562;2023-04-01T05:29:11;9.90;99.90
3416;DHT22;1721;51.238;9.562;2023-04-01T05:31:37;9.90;99.90
3416;DHT22;1721;51.238;9.562;2023-04-01T05:34:02;9.90;99.90
3416;DHT22;1721;51.238;9.562;2023-04-01T05:36:28;9.90;99.90
3416;DHT22;1721;51.238;9.562;2023-04-01T05:38:57;9.90;99.90
3416;DHT22;1721;51.238;9.562;2023-04-01T05:41:22;9.90;99.90
3416;DHT22;1721;51.238;9.562;2023-04-01T05:43:48;10.00;99.90
3416;DHT22;1721;51.238;9.562;2023-04-01T05:46:13;10.00;99.90
3416;DHT22;1721;51.238;9.562;2023-04-01T05:48:39;10.00;99.90
3416;DHT22;1721;51.238;9.562;2023-04-01T05:51:04;9.80;99.90
3416;DHT22;1721;51.238;9.562;2023-04-01T05:53:30;9.70;99.90
3416;DHT22;1721;51.238;9.562;2023-04-01T05:55:56;9.80;99.90
3416;DHT22;1721;51.238;9.562;2023-04-01T05:58:21;9.80;99.90
3416;DHT22;1721;51.238;9.562;2023-04-01T06:00:47;9.80;99.90
3416;DHT22;1721;51.238;9.562;2023-04-01T06:03:12;9.80;99.90
3416;DHT22;1721;51.238;9.562;2023-04-01T06:05:40;9.80;99.90
3416;DHT22;1721;51.238;9.562;2023-04-01T06:08:15;9.80;99.90
3416;DHT22;1721;51.238;9.562;2023-04-01T06:22:56;9.70;99.90
3416;DHT22;1721;51.238;9.562;2023-04-01T06:34:20;9.90;99.90
3416;DHT22;1721;51.238;9.562;2023-04-01T06:42:02;10.00;99.90
3416;DHT22;1721;51.238;9.562;2023-04-01T06:47:18;10.10;99.90
3416;DHT22;1721;51.238;9.562;2023-04-01T06:52:38;9.90;99.90
3416;DHT22;1721;51.238;9.562;2023-04-01T06:55:41;10.00;99.90
3416;DHT22;1721;51.238;9.562;2023-04-01T06:58:18;10.10;99.90
3416;DHT22;1721;51.238;9.562;2023-04-01T07:00:46;10.30;99.90
3416;DHT22;1721;51.238;9.562;2023-04-01T07:03:33;10.40;99.90
3416;DHT22;1721;51.238;9.562;2023-04-01T07:06:04;10.40;99.90
3416;DHT22;1721;51.238;9.562;2023-04-01T07:08:35;10.40;99.90
3416;DHT22;1721;51.238;9.562;2023-04-01T07:11:06;10.50;99.90
3416;DHT22;1721;51.238;9.562;2023-04-01T07:13:36;10.50;99.90
3416;DHT22;1721;51.238;9.562;2023-04-01T07:23:50;10.50;99.90
3416;DHT22;1721;51.238;9.562;2023-04-01T07:26:23;10.50;99.90
3416;DHT22;1721;51.238;9.562;2023-04-01T07:28:51;10.60;99.90
3416;DHT22;1721;51.238;9.562;2023-04-01T07:36:44;10.60;99.90
3416;DHT22;1721;51.238;9.562;2023-04-01T07:39:28;10.70;99.90
3416;DHT22;1721;51.238;9.562;2023-04-01T07:50:28;11.30;99.90
3416;DHT22;1721;51.238;9.562;2023-04-01T07:55:55;11.20;99.90
3416;DHT22;1721;51.238;9.562;2023-04-01T08:01:39;11.10;99.90
3416;DHT22;1721;51.238;9.562;2023-04-01T08:11:54;10.90;99.90
3416;DHT22;1721;51.238;9.562;2023-04-01T08:20:17;11.00;99.90
3416;DHT22;1721;51.238;9.562;2023-04-01T08:22:49;11.10;99.90
3416;DHT22;1721;51.238;9.562;2023-04-01T08:25:25;11.40;99.90
3416;DHT22;1721;51.238;9.562;2023-04-01T08:28:09;11.60;99.90
3416;DHT22;1721;51.238;9.562;2023-04-01T08:30:41;11.30;99.60
3416;DHT22;1721;51.238;9.562;2023-04-01T08:33:37;11.20;99.90
3416;DHT22;1721;51.238;9.562;2023-04-01T08:36:23;11.30;99.90
3416;DHT22;1721;51.238;9.562;2023-04-01T08:44:46;11.80;99.70
3416;DHT22;1721;51.238;9.562;2023-04-01T08:56:20;12.10;99.60
3416;DHT22;1721;51.238;9.562;2023-04-01T09:04:36;12.60;99.10
3416;DHT22;1721;51.238;9.562;2023-04-01T09:15:35;12.80;98.90
3416;DHT22;1721;51.238;9.562;2023-04-01T09:18:29;12.90;99.00
3416;DHT22;1721;51.238;9.562;2023-04-01T09:21:04;13.10;98.70
3416;DHT22;1721;51.238;9.562;2023-04-01T09:27:00;12.80;98.80
3416;DHT22;1721;51.238;9.562;2023-04-01T09:29:47;13.00;99.00
3416;DHT22;1721;51.238;9.562;2023-04-01T09:38:22;13.10;98.40
3416;DHT22;1721;51.238;9.562;2023-04-01T10:00:09;12.80;99.10
3416;DHT22;1721;51.238;9.562;2023-04-01T10:08:50;13.00;99.70
3416;DHT22;1721;51.238;9.562;2023-04-01T10:27:57;13.50;99.70
3416;DHT22;1721;51.238;9.562;2023-04-01T10:31:20;13.60;99.30
3416;DHT22;1721;51.238;9.562;2023-04-01T11:01:51;13.50;99.90
3416;DHT22;1721;51.238;9.562;2023-04-01T11:10:54;14.20;99.20
3416;DHT22;1721;51.238;9.562;2023-04-01T11:15:58;14.90;98.80
3416;DHT22;1721;51.238;9.562;2023-04-01T11:18:59;15.00;97.50
3416;DHT22;1721;51.238;9.562;2023-04-01T11:27:05;14.60;98.40
3416;DHT22;1721;51.238;9.562;2023-04-01T11:29:56;14.40;98.00
3416;DHT22;1721;51.238;9.562;2023-04-01T11:36:05;14.80;98.40
3416;DHT22;1721;51.238;9.562;2023-04-01T11:38:44;14.60;98.30
3416;DHT22;1721;51.238;9.562;2023-04-01T11:44:11;14.80;98.10
3416;DHT22;1721;51.238;9.562;2023-04-01T11:46:59;14.90;97.60
3416;DHT22;1721;51.238;9.562;2023-04-01T11:52:47;14.30;97.90
3416;DHT22;1721;51.238;9.562;2023-04-01T11:58:13;14.50;98.30
3416;DHT22;1721;51.238;9.562;2023-04-01T12:00:57;14.60;98.00
3416;DHT22;1721;51.238;9.562;2023-04-01T12:04:04;14.50;97.80
3416;DHT22;1721;51.238;9.562;2023-04-01T12:17:52;13.70;99.40
3416;DHT22;1721;51.238;9.562;2023-04-01T12:20:39;13.70;99.30
3416;DHT22;1721;51.238;9.562;2023-04-01T12:26:28;13.90;99.70
3416;DHT22;1721;51.238;9.562;2023-04-01T12:39:37;13.70;99.90
3416;DHT22;1721;51.238;9.562;2023-04-01T12:42:35;13.80;99.90
3416;DHT22;1721;51.238;9.562;2023-04-01T12:53:20;14.20;99.90
3416;DHT22;1721;51.238;9.562;2023-04-01T12:55:49;14.30;99.60
3416;DHT22;1721;51.238;9.562;2023-04-01T13:13:38;14.10;99.40
3416;DHT22;1721;51.238;9.562;2023-04-01T13:16:16;14.20;99.30
3416;DHT22;1721;51.238;9.562;2023-04-01T13:22:04;13.90;99.10
3416;DHT22;1721;51.238;9.562;2023-04-01T13:28:00;14.30;99.70
3416;DHT22;1721;51.238;9.562;2023-04-01T13:30:33;14.50;99.40
3416;DHT22;1721;51.238;9.562;2023-04-01T13:35:53;14.40;98.90
3416;DHT22;1721;51.238;9.562;2023-04-01T13:43:42;14.20;98.80
3416;DHT22;1721;51.238;9.562;2023-04-01T13:52:21;14.30;98.80
3416;DHT22;1721;51.238;9.562;2023-04-01T14:03:57;13.70;99.80
3416;DHT22;1721;51.238;9.562;2023-04-01T14:17:42;13.50;99.90
3416;DHT22;1721;51.238;9.562;2023-04-01T14:25:51;13.50;99.90
3416;DHT22;1721;51.238;9.562;2023-04-01T14:40:03;14.00;99.90
3416;DHT22;1721;51.238;9.562;2023-04-01T14:50:54;13.90;99.90
3416;DHT22;1721;51.238;9.562;2023-04-01T14:53:27;14.00;99.90
3416;DHT22;1721;51.238;9.562;2023-04-01T14:55:59;14.20;99.90
3416;DHT22;1721;51.238;9.562;2023-04-01T14:58:41;14.40;99.90
3416;DHT22;1721;51.238;9.562;2023-04-01T15:01:37;14.50;99.90
3416;DHT22;1721;51.238;9.562;2023-04-01T15:18:39;13.30;99.90
3416;DHT22;1721;51.238;9.562;2023-04-01T15:35:10;13.00;99.90
3416;DHT22;1721;51.238;9.562;2023-04-01T15:37:57;13.10;99.90
3416;DHT22;1721;51.238;9.562;2023-04-01T15:40:48;13.10;99.90
3416;DHT22;1721;51.238;9.562;2023-04-01T15:52:18;13.10;99.90
3416;DHT22;1721;51.238;9.562;2023-04-01T15:55:00;13.20;99.90
3416;DHT22;1721;51.238;9.562;2023-04-01T15:57:52;13.10;99.90
3416;DHT22;1721;51.238;9.562;2023-04-01T16:08:25;13.00;99.90
3416;DHT22;1721;51.238;9.562;2023-04-01T16:13:46;13.20;99.90
3416;DHT22;1721;51.238;9.562;2023-04-01T16:16:29;13.20;99.90
3416;DHT22;1721;51.238;9.562;2023-04-01T16:19:13;13.10;99.90
3416;DHT22;1721;51.238;9.562;2023-04-01T16:27:54;13.30;99.90
3416;DHT22;1721;51.238;9.562;2023-04-01T16:41:58;13.30;99.90
3416;DHT22;1721;51.238;9.562;2023-04-01T16:44:55;13.40;99.90
3416;DHT22;1721;51.238;9.562;2023-04-01T16:50:22;13.50;99.90
3416;DHT22;1721;51.238;9.562;2023-04-01T16:56:27;13.50;99.90
3416;DHT22;1721;51.238;9.562;2023-04-01T16:59:07;13.50;99.90
3416;DHT22;1721;51.238;9.562;2023-04-01T17:15:41;12.80;99.90
3416;DHT22;1721;51.238;9.562;2023-04-01T17:20:59;12.90;99.90
3416;DHT22;1721;51.238;9.562;2023-04-01T17:23:45;12.80;99.90
3416;DHT22;1721;51.238;9.562;2023-04-01T17:26:28;12.80;99.90
3416;DHT22;1721;51.238;9.562;2023-04-01T17:29:23;12.80;99.90
3416;DHT22;1721;51.238;9.562;2023-04-01T17:38:10;12.70;99.90
3416;DHT22;1721;51.238;9.562;2023-04-01T17:49:01;12.60;99.90
3416;DHT22;1721;51.238;9.562;2023-04-01T17:59:47;12.50;99.90
3416;DHT22;1721;51.238;9.562;2023-04-01T18:02:47;12.50;99.90
3416;DHT22;1721;51.238;9.562;2023-04-01T18:11:15;12.50;99.90
3416;DHT22;1721;51.238;9.562;2023-04-01T18:20:00;12.40;99.90
3416;DHT22;1721;51.238;9.562;2023-04-01T18:22:53;12.40;99.90
3416;DHT22;1721;51.238;9.562;2023-04-01T18:30:35;12.40;99.90
3416;DHT22;1721;51.238;9.562;2023-04-01T18:33:17;12.40;99.90
3416;DHT22;1721;51.238;9.562;2023-04-01T18:35:53;12.30;99.90
3416;DHT22;1721;51.238;9.562;2023-04-01T18:38:33;12.40;99.90
3416;DHT22;1721;51.238;9.562;2023-04-01T18:46:39;12.30;99.90
3416;DHT22;1721;51.238;9.562;2023-04-01T18:49:30;12.30;99.90
3416;DHT22;1721;51.238;9.562;2023-04-01T18:52:08;12.30;99.90
3416;DHT22;1721;51.238;9.562;2023-04-01T18:55:18;12.30;99.90
3416;DHT22;1721;51.238;9.562;2023-04-01T19:00:22;12.20;99.90
3416;DHT22;1721;51.238;9.562;2023-04-01T19:03:03;12.30;99.90
3416;DHT22;1721;51.238;9.562;2023-04-01T19:05:38;12.20;99.90
3416;DHT22;1721;51.238;9.562;2023-04-01T19:08:33;12.20;99.90
3416;DHT22;1721;51.238;9.562;2023-04-01T19:11:22;12.20;99.90
3416;DHT22;1721;51.238;9.562;2023-04-01T19:14:11;12.20;99.90
3416;DHT22;1721;51.238;9.562;2023-04-01T19:16:53;12.20;99.90
3416;DHT22;1721;51.238;9.562;2023-04-01T19:19:41;12.20;99.90
3416;DHT22;1721;51.238;9.562;2023-04-01T19:27:52;12.20;99.90
3416;DHT22;1721;51.238;9.562;2023-04-01T19:36:30;12.20;99.90
3416;DHT22;1721;51.238;9.562;2023-04-01T19:38:43;12.20;99.90
3416;DHT22;1721;51.238;9.562;2023-04-01T19:41:32;12.20;99.90
3416;DHT22;1721;51.238;9.562;2023-04-01T19:46:51;12.20;99.90
3416;DHT22;1721;51.238;9.562;2023-04-01T19:49:21;12.20;99.90
3416;DHT22;1721;51.238;9.562;2023-04-01T20:03:01;12.30;99.90
3416;DHT22;1721;51.238;9.562;2023-04-01T20:08:42;12.20;99.90
3416;DHT22;1721;51.238;9.562;2023-04-01T20:19:55;12.30;99.90
3416;DHT22;1721;51.238;9.562;2023-04-01T20:24:53;12.30;99.90
3416;DHT22;1721;51.238;9.562;2023-04-01T20:27:33;12.30;99.90
3416;DHT22;1721;51.238;9.562;2023-04-01T20:33:14;12.30;99.90
3416;DHT22;1721;51.238;9.562;2023-04-01T20:36:00;12.20;99.90
3416;DHT22;1721;51.238;9.562;2023-04-01T20:44:24;12.10;99.90
3416;DHT22;1721;51.238;9.562;2023-04-01T20:49:25;12.10;99.90
3416;DHT22;1721;51.238;9.562;2023-04-01T20:54:48;12.20;99.90
3416;DHT22;1721;51.238;9.562;2023-04-01T21:00:45;12.20;99.90
3416;DHT22;1721;51.238;9.562;2023-04-01T21:12:10;12.20;99.90
3416;DHT22;1721;51.238;9.562;2023-04-01T21:18:10;12.20;99.90
3416;DHT22;1721;51.238;9.562;2023-04-01T21:20:49;12.10;99.90
3416;DHT22;1721;51.238;9.562;2023-04-01T21:23:38;12.10;99.90
3416;DHT22;1721;51.238;9.562;2023-04-01T21:37:41;12.00;99.90
3416;DHT22;1721;51.238;9.562;2023-04-01T21:40:38;12.00;99.90
3416;DHT22;1721;51.238;9.562;2023-04-01T21:43:32;12.00;99.90
3416;DHT22;1721;51.238;9.562;2023-04-01T21:52:31;12.00;99.90
3416;DHT22;1721;51.238;9.562;2023-04-01T21:55:11;12.00;99.90
3416;DHT22;1721;51.238;9.562;2023-04-01T22:00:39;12.10;99.90
3416;DHT22;1721;51.238;9.562;2023-04-01T22:05:56;12.10;99.90
3416;DHT22;1721;51.238;9.562;2023-04-01T22:08:51;12.00;99.90
3416;DHT22;1721;51.238;9.562;2023-04-01T22:16:59;11.60;99.90
3416;DHT22;1721;51.238;9.562;2023-04-01T22:28:12;11.40;99.90
3416;DHT22;1721;51.238;9.562;2023-04-01T22:30:43;11.30;99.90
3416;DHT22;1721;51.238;9.562;2023-04-01T22:33:32;11.40;99.90
3416;DHT22;1721;51.238;9.562;2023-04-01T22:36:25;11.40;99.90
3416;DHT22;1721;51.238;9.562;2023-04-01T22:50:17;11.00;99.90
3416;DHT22;1721;51.238;9.562;2023-04-01T22:52:47;10.90;99.90
3416;DHT22;1721;51.238;9.562;2023-04-01T22:55:17;10.80;99.90
3416;DHT22;1721;51.238;9.562;2023-04-01T22:57:54;10.80;99.90
3416;DHT22;1721;51.238;9.562;2023-04-01T23:00:34;10.70;99.90
3416;DHT22;1721;51.238;9.562;2023-04-01T23:03:09;10.60;99.90
3416;DHT22;1721;51.238;9.562;2023-04-01T23:05:43;10.50;99.90
3416;DHT22;1721;51.238;9.562;2023-04-01T23:11:25;10.60;99.90
3416;DHT22;1721;51.238;9.562;2023-04-01T23:14:14;10.40;99.90
3416;DHT22;1721;51.238;9.562;2023-04-01T23:19:42;10.40;99.90
3416;DHT22;1721;51.238;9.562;2023-04-01T23:22:20;10.40;99.90
3416;DHT22;1721;51.238;9.562;2023-04-01T23:24:51;10.30;99.90
3416;DHT22;1721;51.238;9.562;2023-04-01T23:27:23;10.30;99.90
3416;DHT22;1721;51.238;9.562;2023-04-01T23:29:50;10.30;99.90
3416;DHT22;1721;51.238;9.562;2023-04-01T23:32:23;10.30;99.90
3416;DHT22;1721;51.238;9.562;2023-04-01T23:34:53;10.40;99.90
3416;DHT22;1721;51.238;9.562;2023-04-01T23:37:20;10.30;99.90
3416;DHT22;1721;51.238;9.562;2023-04-01T23:39:48;10.30;99.90
3416;DHT22;1721;51.238;9.562;2023-04-01T23:44:58;10.30;99.90
3416;DHT22;1721;51.238;9.562;2023-04-01T23:49:57;10.00;99.90
3416;DHT22;1721;51.238;9.562;2023-04-01T23:52:25;9.80;99.90
3416;DHT22;1721;51.238;9.562;2023-04-01T23:55:01;9.80;99.90
3416;DHT22;1721;51.238;9.562;2023-04-01T23:57:33;9.70;99.90
